sensor_id;sensor_type;location;lat;lon;timestamp;P1;durP1;ratioP1;P2;durP2;ratioP2
18142;SDS011;9197;50.930;3.140;2023-05-20T00:00:26;23.67;;;12.63;;
18142;SDS011;9197;50.930;3.140;2023-05-20T00:02:53;24.17;;;12.97;;
18142;SDS011;9197;50.930;3.140;2023-05-20T00:05:21;20.97;;;13.00;;
18142;SDS011;9197;50.930;3.140;2023-05-20T00:07:49;27.80;;;13.13;;
18142;SDS011;9197;50.930;3.140;2023-05-20T00:10:16;27.30;;;12.27;;
18142;SDS011;9197;50.930;3.140;2023-05-20T00:12:45;17.90;;;10.27;;
18142;SDS011;9197;50.930;3.140;2023-05-20T00:15:12;24.60;;;12.83;;
18142;SDS011;9197;50.930;3.140;2023-05-20T00:17:39;21.67;;;11.97;;
18142;SDS011;9197;50.930;3.140;2023-05-20T00:20:07;16.47;;;12.30;;
18142;SDS011;9197;50.930;3.140;2023-05-20T00:22:34;19.27;;;13.50;;
18142;SDS011;9197;50.930;3.140;2023-05-20T00:25:02;24.47;;;12.97;;
18142;SDS011;9197;50.930;3.140;2023-05-20T00:27:29;24.17;;;13.37;;
18142;SDS011;9197;50.930;3.140;2023-05-20T00:29:58;21.60;;;12.73;;
18142;SDS011;9197;50.930;3.140;2023-05-20T00:32:25;24.93;;;12.77;;
18142;SDS011;9197;50.930;3.140;2023-05-20T00:34:56;21.03;;;13.17;;
18142;SDS011;9197;50.930;3.140;2023-05-20T00:37:23;21.80;;;14.50;;
18142;SDS011;9197;50.930;3.140;2023-05-20T00:39:51;22.13;;;12.87;;
18142;SDS011;9197;50.930;3.140;2023-05-20T00:42:18;19.10;;;11.37;;
18142;SDS011;9197;50.930;3.140;2023-05-20T00:44:46;20.60;;;14.00;;
18142;SDS011;9197;50.930;3.140;2023-05-20T00:47:15;23.60;;;13.73;;
18142;SDS011;9197;50.930;3.140;2023-05-20T00:49:43;16.63;;;12.67;;
18142;SDS011;9197;50.930;3.140;2023-05-20T00:52:11;22.70;;;13.80;;
18142;SDS011;9197;50.930;3.140;2023-05-20T00:54:39;24.57;;;13.60;;
18142;SDS011;9197;50.930;3.140;2023-05-20T00:57:06;29.53;;;14.77;;
18142;SDS011;9197;50.930;3.140;2023-05-20T00:59:34;25.67;;;14.07;;
18142;SDS011;9197;50.930;3.140;2023-05-20T01:02:02;24.07;;;13.87;;
18142;SDS011;9197;50.930;3.140;2023-05-20T01:04:31;20.17;;;14.30;;
18142;SDS011;9197;50.930;3.140;2023-05-20T01:06:59;27.57;;;15.27;;
18142;SDS011;9197;50.930;3.140;2023-05-20T01:09:27;23.37;;;13.53;;
18142;SDS011;9197;50.930;3.140;2023-05-20T01:11:58;21.63;;;14.63;;
18142;SDS011;9197;50.930;3.140;2023-05-20T01:14:26;21.23;;;13.17;;
18142;SDS011;9197;50.930;3.140;2023-05-20T01:16:56;23.10;;;14.77;;
18142;SDS011;9197;50.930;3.140;2023-05-20T01:19:26;21.37;;;13.70;;
18142;SDS011;9197;50.930;3.140;2023-05-20T01:22:00;24.73;;;13.13;;
18142;SDS011;9197;50.930;3.140;2023-05-20T01:24:33;31.90;;;16.10;;
18142;SDS011;9197;50.930;3.140;2023-05-20T01:27:00;20.30;;;15.00;;
18142;SDS011;9197;50.930;3.140;2023-05-20T01:29:28;23.73;;;13.83;;
18142;SDS011;9197;50.930;3.140;2023-05-20T01:31:56;21.03;;;14.93;;
18142;SDS011;9197;50.930;3.140;2023-05-20T01:34:25;21.70;;;14.17;;
18142;SDS011;9197;50.930;3.140;2023-05-20T01:36:53;20.70;;;13.80;;
18142;SDS011;9197;50.930;3.140;2023-05-20T01:39:20;20.43;;;14.30;;
18142;SDS011;9197;50.930;3.140;2023-05-20T01:41:50;20.70;;;12.93;;
18142;SDS011;9197;50.930;3.140;2023-05-20T01:44:17;21.57;;;14.00;;
18142;SDS011;9197;50.930;3.140;2023-05-20T01:46:47;28.67;;;14.40;;
18142;SDS011;9197;50.930;3.140;2023-05-20T01:49:14;19.87;;;13.13;;
18142;SDS011;9197;50.930;3.140;2023-05-20T01:51:42;17.87;;;13.80;;
18142;SDS011;9197;50.930;3.140;2023-05-20T01:54:09;17.83;;;12.70;;
18142;SDS011;9197;50.930;3.140;2023-05-20T01:56:37;20.07;;;13.93;;
18142;SDS011;9197;50.930;3.140;2023-05-20T01:59:06;19.20;;;14.03;;
18142;SDS011;9197;50.930;3.140;2023-05-20T02:01:33;22.20;;;13.10;;
18142;SDS011;9197;50.930;3.140;2023-05-20T02:04:01;19.87;;;12.27;;
18142;SDS011;9197;50.930;3.140;2023-05-20T02:06:28;20.57;;;11.97;;
18142;SDS011;9197;50.930;3.140;2023-05-20T02:08:55;20.43;;;11.73;;
18142;SDS011;9197;50.930;3.140;2023-05-20T02:11:23;17.33;;;11.67;;
18142;SDS011;9197;50.930;3.140;2023-05-20T02:13:50;16.70;;;12.90;;
18142;SDS011;9197;50.930;3.140;2023-05-20T02:16:19;17.63;;;11.23;;
18142;SDS011;9197;50.930;3.140;2023-05-20T02:18:46;17.00;;;11.63;;
18142;SDS011;9197;50.930;3.140;2023-05-20T02:21:15;16.77;;;11.23;;
18142;SDS011;9197;50.930;3.140;2023-05-20T02:23:43;20.17;;;12.00;;
18142;SDS011;9197;50.930;3.140;2023-05-20T02:26:10;18.30;;;11.87;;
18142;SDS011;9197;50.930;3.140;2023-05-20T02:28:38;16.67;;;10.63;;
18142;SDS011;9197;50.930;3.140;2023-05-20T02:31:10;21.17;;;11.43;;
18142;SDS011;9197;50.930;3.140;2023-05-20T02:33:39;15.53;;;10.00;;
18142;SDS011;9197;50.930;3.140;2023-05-20T02:36:06;15.00;;;10.20;;
18142;SDS011;9197;50.930;3.140;2023-05-20T02:38:34;15.17;;;10.93;;
18142;SDS011;9197;50.930;3.140;2023-05-20T02:41:01;13.20;;;9.93;;
18142;SDS011;9197;50.930;3.140;2023-05-20T02:43:29;15.40;;;10.30;;
18142;SDS011;9197;50.930;3.140;2023-05-20T02:45:56;13.00;;;9.97;;
18142;SDS011;9197;50.930;3.140;2023-05-20T02:48:24;12.13;;;9.57;;
18142;SDS011;9197;50.930;3.140;2023-05-20T02:50:53;18.50;;;10.10;;
18142;SDS011;9197;50.930;3.140;2023-05-20T02:53:20;14.50;;;9.03;;
18142;SDS011;9197;50.930;3.140;2023-05-20T02:55:47;13.53;;;9.90;;
18142;SDS011;9197;50.930;3.140;2023-05-20T02:58:15;16.67;;;9.53;;
18142;SDS011;9197;50.930;3.140;2023-05-20T03:00:42;14.33;;;9.87;;
18142;SDS011;9197;50.930;3.140;2023-05-20T03:03:10;15.50;;;9.07;;
18142;SDS011;9197;50.930;3.140;2023-05-20T03:05:37;18.80;;;10.33;;
18142;SDS011;9197;50.930;3.140;2023-05-20T03:08:08;15.10;;;9.37;;
18142;SDS011;9197;50.930;3.140;2023-05-20T03:10:36;11.93;;;8.80;;
18142;SDS011;9197;50.930;3.140;2023-05-20T03:13:04;10.00;;;8.60;;
18142;SDS011;9197;50.930;3.140;2023-05-20T03:15:34;14.70;;;8.47;;
18142;SDS011;9197;50.930;3.140;2023-05-20T03:18:01;12.07;;;8.77;;
18142;SDS011;9197;50.930;3.140;2023-05-20T03:20:29;10.20;;;7.13;;
18142;SDS011;9197;50.930;3.140;2023-05-20T03:22:57;12.33;;;8.17;;
18142;SDS011;9197;50.930;3.140;2023-05-20T03:25:26;15.90;;;9.13;;
18142;SDS011;9197;50.930;3.140;2023-05-20T03:27:54;16.87;;;8.63;;
18142;SDS011;9197;50.930;3.140;2023-05-20T03:30:22;13.63;;;8.93;;
18142;SDS011;9197;50.930;3.140;2023-05-20T03:32:50;11.40;;;8.27;;
18142;SDS011;9197;50.930;3.140;2023-05-20T03:35:17;10.97;;;7.33;;
18142;SDS011;9197;50.930;3.140;2023-05-20T03:37:44;11.70;;;7.53;;
18142;SDS011;9197;50.930;3.140;2023-05-20T03:40:12;18.37;;;7.63;;
18142;SDS011;9197;50.930;3.140;2023-05-20T03:42:40;13.33;;;8.00;;
18142;SDS011;9197;50.930;3.140;2023-05-20T03:45:08;16.13;;;8.70;;
18142;SDS011;9197;50.930;3.140;2023-05-20T03:47:36;14.53;;;7.67;;
18142;SDS011;9197;50.930;3.140;2023-05-20T03:50:03;11.67;;;7.53;;
18142;SDS011;9197;50.930;3.140;2023-05-20T03:52:31;12.23;;;8.03;;
18142;SDS011;9197;50.930;3.140;2023-05-20T03:54:59;11.47;;;7.50;;
18142;SDS011;9197;50.930;3.140;2023-05-20T03:57:26;9.17;;;6.90;;
18142;SDS011;9197;50.930;3.140;2023-05-20T03:59:57;13.03;;;7.20;;
18142;SDS011;9197;50.930;3.140;2023-05-20T04:02:26;13.57;;;8.73;;
18142;SDS011;9197;50.930;3.140;2023-05-20T04:04:53;12.17;;;7.77;;
18142;SDS011;9197;50.930;3.140;2023-05-20T04:07:21;11.57;;;7.77;;
18142;SDS011;9197;50.930;3.140;2023-05-20T04:09:49;8.93;;;6.93;;
18142;SDS011;9197;50.930;3.140;2023-05-20T04:12:16;9.53;;;7.27;;
18142;SDS011;9197;50.930;3.140;2023-05-20T04:14:45;14.30;;;7.00;;
18142;SDS011;9197;50.930;3.140;2023-05-20T04:17:15;10.47;;;8.23;;
18142;SDS011;9197;50.930;3.140;2023-05-20T04:19:42;11.27;;;6.37;;
18142;SDS011;9197;50.930;3.140;2023-05-20T04:22:10;12.17;;;6.67;;
18142;SDS011;9197;50.930;3.140;2023-05-20T04:24:37;10.53;;;7.00;;
18142;SDS011;9197;50.930;3.140;2023-05-20T04:27:05;9.37;;;7.03;;
18142;SDS011;9197;50.930;3.140;2023-05-20T04:29:32;10.53;;;6.23;;
18142;SDS011;9197;50.930;3.140;2023-05-20T04:31:59;9.30;;;6.33;;
18142;SDS011;9197;50.930;3.140;2023-05-20T04:34:29;9.17;;;6.33;;
18142;SDS011;9197;50.930;3.140;2023-05-20T04:36:59;10.30;;;6.67;;
18142;SDS011;9197;50.930;3.140;2023-05-20T04:39:26;13.53;;;6.70;;
18142;SDS011;9197;50.930;3.140;2023-05-20T04:41:53;9.93;;;7.17;;
18142;SDS011;9197;50.930;3.140;2023-05-20T04:44:21;11.13;;;6.80;;
18142;SDS011;9197;50.930;3.140;2023-05-20T04:46:50;10.50;;;6.53;;
18142;SDS011;9197;50.930;3.140;2023-05-20T04:49:17;12.07;;;8.03;;
18142;SDS011;9197;50.930;3.140;2023-05-20T04:51:46;8.13;;;5.93;;
18142;SDS011;9197;50.930;3.140;2023-05-20T04:54:14;18.33;;;7.10;;
18142;SDS011;9197;50.930;3.140;2023-05-20T04:56:42;11.50;;;6.33;;
18142;SDS011;9197;50.930;3.140;2023-05-20T04:59:09;6.83;;;5.93;;
18142;SDS011;9197;50.930;3.140;2023-05-20T05:01:36;9.60;;;7.00;;
18142;SDS011;9197;50.930;3.140;2023-05-20T05:04:04;9.07;;;6.67;;
18142;SDS011;9197;50.930;3.140;2023-05-20T05:06:32;9.73;;;5.47;;
18142;SDS011;9197;50.930;3.140;2023-05-20T05:09:00;13.80;;;7.57;;
18142;SDS011;9197;50.930;3.140;2023-05-20T05:11:28;7.90;;;6.07;;
18142;SDS011;9197;50.930;3.140;2023-05-20T05:13:56;9.17;;;5.80;;
18142;SDS011;9197;50.930;3.140;2023-05-20T05:16:23;6.57;;;5.90;;
18142;SDS011;9197;50.930;3.140;2023-05-20T05:18:50;11.37;;;6.63;;
18142;SDS011;9197;50.930;3.140;2023-05-20T05:21:18;8.67;;;6.10;;
18142;SDS011;9197;50.930;3.140;2023-05-20T05:23:45;6.20;;;5.37;;
18142;SDS011;9197;50.930;3.140;2023-05-20T05:26:14;8.90;;;6.30;;
18142;SDS011;9197;50.930;3.140;2023-05-20T05:28:41;10.67;;;5.67;;
18142;SDS011;9197;50.930;3.140;2023-05-20T05:31:09;13.00;;;6.43;;
18142;SDS011;9197;50.930;3.140;2023-05-20T05:33:36;9.53;;;5.77;;
18142;SDS011;9197;50.930;3.140;2023-05-20T05:36:04;11.93;;;6.07;;
18142;SDS011;9197;50.930;3.140;2023-05-20T05:38:31;14.10;;;6.50;;
18142;SDS011;9197;50.930;3.140;2023-05-20T05:40:58;7.10;;;5.40;;
18142;SDS011;9197;50.930;3.140;2023-05-20T05:43:27;10.40;;;6.63;;
18142;SDS011;9197;50.930;3.140;2023-05-20T05:45:55;10.07;;;5.90;;
18142;SDS011;9197;50.930;3.140;2023-05-20T05:48:23;11.10;;;6.30;;
18142;SDS011;9197;50.930;3.140;2023-05-20T05:50:50;9.93;;;6.63;;
18142;SDS011;9197;50.930;3.140;2023-05-20T05:53:18;11.50;;;6.27;;
18142;SDS011;9197;50.930;3.140;2023-05-20T05:55:46;9.17;;;5.83;;
18142;SDS011;9197;50.930;3.140;2023-05-20T05:58:13;14.50;;;6.73;;
18142;SDS011;9197;50.930;3.140;2023-05-20T06:00:43;12.67;;;5.93;;
18142;SDS011;9197;50.930;3.140;2023-05-20T06:03:10;11.27;;;5.87;;
18142;SDS011;9197;50.930;3.140;2023-05-20T06:05:37;9.83;;;6.37;;
18142;SDS011;9197;50.930;3.140;2023-05-20T06:08:05;9.10;;;6.37;;
18142;SDS011;9197;50.930;3.140;2023-05-20T06:10:32;10.10;;;5.77;;
18142;SDS011;9197;50.930;3.140;2023-05-20T06:13:00;15.07;;;7.50;;
18142;SDS011;9197;50.930;3.140;2023-05-20T06:15:27;12.03;;;6.17;;
18142;SDS011;9197;50.930;3.140;2023-05-20T06:17:56;10.50;;;6.43;;
18142;SDS011;9197;50.930;3.140;2023-05-20T06:20:23;14.87;;;5.97;;
18142;SDS011;9197;50.930;3.140;2023-05-20T06:22:51;13.10;;;5.93;;
18142;SDS011;9197;50.930;3.140;2023-05-20T06:25:18;11.77;;;6.90;;
18142;SDS011;9197;50.930;3.140;2023-05-20T06:27:47;8.43;;;6.00;;
18142;SDS011;9197;50.930;3.140;2023-05-20T06:30:14;9.87;;;5.70;;
18142;SDS011;9197;50.930;3.140;2023-05-20T06:32:41;11.00;;;6.17;;
18142;SDS011;9197;50.930;3.140;2023-05-20T06:35:10;10.60;;;6.00;;
18142;SDS011;9197;50.930;3.140;2023-05-20T06:37:38;9.30;;;5.50;;
18142;SDS011;9197;50.930;3.140;2023-05-20T06:40:05;10.13;;;7.10;;
18142;SDS011;9197;50.930;3.140;2023-05-20T06:42:33;10.77;;;6.70;;
18142;SDS011;9197;50.930;3.140;2023-05-20T06:45:00;9.77;;;7.03;;
18142;SDS011;9197;50.930;3.140;2023-05-20T06:47:27;12.77;;;6.43;;
18142;SDS011;9197;50.930;3.140;2023-05-20T06:49:54;8.03;;;6.57;;
18142;SDS011;9197;50.930;3.140;2023-05-20T06:52:23;9.50;;;5.97;;
18142;SDS011;9197;50.930;3.140;2023-05-20T06:54:50;9.07;;;6.07;;
18142;SDS011;9197;50.930;3.140;2023-05-20T06:57:18;9.13;;;6.60;;
18142;SDS011;9197;50.930;3.140;2023-05-20T06:59:46;11.83;;;6.90;;
18142;SDS011;9197;50.930;3.140;2023-05-20T07:02:13;8.60;;;6.55;;
18142;SDS011;9197;50.930;3.140;2023-05-20T07:04:41;8.80;;;5.93;;
18142;SDS011;9197;50.930;3.140;2023-05-20T07:07:08;8.13;;;5.60;;
18142;SDS011;9197;50.930;3.140;2023-05-20T07:09:38;8.75;;;4.50;;
18142;SDS011;9197;50.930;3.140;2023-05-20T07:12:06;6.13;;;5.25;;
18142;SDS011;9197;50.930;3.140;2023-05-20T07:14:33;7.15;;;5.03;;
18142;SDS011;9197;50.930;3.140;2023-05-20T07:17:00;7.38;;;4.90;;
18142;SDS011;9197;50.930;3.140;2023-05-20T07:19:28;7.85;;;5.32;;
18142;SDS011;9197;50.930;3.140;2023-05-20T07:21:55;6.40;;;5.05;;
18142;SDS011;9197;50.930;3.140;2023-05-20T07:24:23;6.50;;;5.40;;
18142;SDS011;9197;50.930;3.140;2023-05-20T07:26:51;8.30;;;5.30;;
18142;SDS011;9197;50.930;3.140;2023-05-20T07:29:19;5.57;;;4.88;;
18142;SDS011;9197;50.930;3.140;2023-05-20T07:31:46;8.68;;;5.22;;
18142;SDS011;9197;50.930;3.140;2023-05-20T07:34:13;5.25;;;4.70;;
18142;SDS011;9197;50.930;3.140;2023-05-20T07:36:41;7.60;;;4.75;;
18142;SDS011;9197;50.930;3.140;2023-05-20T07:39:08;7.97;;;5.00;;
18142;SDS011;9197;50.930;3.140;2023-05-20T07:41:36;6.03;;;4.57;;
18142;SDS011;9197;50.930;3.140;2023-05-20T07:44:05;8.05;;;5.07;;
18142;SDS011;9197;50.930;3.140;2023-05-20T07:46:33;7.03;;;5.07;;
18142;SDS011;9197;50.930;3.140;2023-05-20T07:49:02;7.28;;;5.55;;
18142;SDS011;9197;50.930;3.140;2023-05-20T07:51:29;8.32;;;5.70;;
18142;SDS011;9197;50.930;3.140;2023-05-20T07:53:56;11.68;;;6.65;;
18142;SDS011;9197;50.930;3.140;2023-05-20T07:56:24;7.05;;;5.57;;
18142;SDS011;9197;50.930;3.140;2023-05-20T07:58:52;6.18;;;5.28;;
18142;SDS011;9197;50.930;3.140;2023-05-20T08:01:21;7.38;;;5.90;;
18142;SDS011;9197;50.930;3.140;2023-05-20T08:03:49;5.88;;;5.25;;
18142;SDS011;9197;50.930;3.140;2023-05-20T08:06:17;8.40;;;5.05;;
18142;SDS011;9197;50.930;3.140;2023-05-20T08:08:45;9.27;;;5.28;;
18142;SDS011;9197;50.930;3.140;2023-05-20T08:11:12;7.80;;;5.40;;
18142;SDS011;9197;50.930;3.140;2023-05-20T08:13:39;6.05;;;4.93;;
18142;SDS011;9197;50.930;3.140;2023-05-20T08:16:07;6.00;;;5.40;;
18142;SDS011;9197;50.930;3.140;2023-05-20T08:18:36;8.05;;;5.40;;
18142;SDS011;9197;50.930;3.140;2023-05-20T08:21:03;7.70;;;4.95;;
18142;SDS011;9197;50.930;3.140;2023-05-20T08:23:32;9.32;;;5.35;;
18142;SDS011;9197;50.930;3.140;2023-05-20T08:25:59;7.43;;;5.40;;
18142;SDS011;9197;50.930;3.140;2023-05-20T08:28:27;8.55;;;5.43;;
18142;SDS011;9197;50.930;3.140;2023-05-20T08:30:55;7.10;;;5.55;;
18142;SDS011;9197;50.930;3.140;2023-05-20T08:33:23;4.95;;;4.47;;
18142;SDS011;9197;50.930;3.140;2023-05-20T08:35:52;6.63;;;4.68;;
18142;SDS011;9197;50.930;3.140;2023-05-20T08:38:19;6.68;;;4.50;;
18142;SDS011;9197;50.930;3.140;2023-05-20T08:40:50;5.80;;;5.22;;
18142;SDS011;9197;50.930;3.140;2023-05-20T08:43:17;7.38;;;5.22;;
18142;SDS011;9197;50.930;3.140;2023-05-20T08:45:45;6.40;;;5.00;;
18142;SDS011;9197;50.930;3.140;2023-05-20T08:48:13;6.35;;;5.00;;
18142;SDS011;9197;50.930;3.140;2023-05-20T08:50:42;6.25;;;5.40;;
18142;SDS011;9197;50.930;3.140;2023-05-20T08:53:11;5.82;;;5.22;;
18142;SDS011;9197;50.930;3.140;2023-05-20T08:55:41;6.13;;;4.90;;
18142;SDS011;9197;50.930;3.140;2023-05-20T08:58:08;6.25;;;4.88;;
18142;SDS011;9197;50.930;3.140;2023-05-20T09:00:35;6.25;;;4.90;;
18142;SDS011;9197;50.930;3.140;2023-05-20T09:03:03;10.55;;;4.82;;
18142;SDS011;9197;50.930;3.140;2023-05-20T09:05:31;8.07;;;4.97;;
18142;SDS011;9197;50.930;3.140;2023-05-20T09:08:04;5.13;;;4.63;;
18142;SDS011;9197;50.930;3.140;2023-05-20T09:10:34;5.28;;;4.78;;
18142;SDS011;9197;50.930;3.140;2023-05-20T09:13:01;5.07;;;4.68;;
18142;SDS011;9197;50.930;3.140;2023-05-20T09:15:29;5.90;;;4.10;;
18142;SDS011;9197;50.930;3.140;2023-05-20T09:17:58;5.45;;;4.60;;
18142;SDS011;9197;50.930;3.140;2023-05-20T09:20:26;5.80;;;4.63;;
18142;SDS011;9197;50.930;3.140;2023-05-20T09:22:58;6.85;;;4.80;;
18142;SDS011;9197;50.930;3.140;2023-05-20T09:25:25;6.72;;;5.10;;
18142;SDS011;9197;50.930;3.140;2023-05-20T09:27:54;8.70;;;4.78;;
18142;SDS011;9197;50.930;3.140;2023-05-20T09:30:22;4.88;;;4.47;;
18142;SDS011;9197;50.930;3.140;2023-05-20T09:32:53;5.88;;;5.00;;
18142;SDS011;9197;50.930;3.140;2023-05-20T09:35:21;7.90;;;4.93;;
18142;SDS011;9197;50.930;3.140;2023-05-20T09:37:50;5.85;;;5.07;;
18142;SDS011;9197;50.930;3.140;2023-05-20T09:40:19;5.63;;;4.82;;
18142;SDS011;9197;50.930;3.140;2023-05-20T09:42:49;7.18;;;4.72;;
18142;SDS011;9197;50.930;3.140;2023-05-20T09:45:21;5.57;;;4.32;;
18142;SDS011;9197;50.930;3.140;2023-05-20T09:47:50;5.07;;;4.43;;
18142;SDS011;9197;50.930;3.140;2023-05-20T09:50:18;5.30;;;3.67;;
18142;SDS011;9197;50.930;3.140;2023-05-20T09:52:46;4.80;;;4.32;;
18142;SDS011;9197;50.930;3.140;2023-05-20T09:55:14;4.78;;;4.28;;
18142;SDS011;9197;50.930;3.140;2023-05-20T09:57:41;6.03;;;4.50;;
18142;SDS011;9197;50.930;3.140;2023-05-20T10:00:09;7.40;;;4.50;;
18142;SDS011;9197;50.930;3.140;2023-05-20T10:02:40;7.15;;;4.30;;
18142;SDS011;9197;50.930;3.140;2023-05-20T10:05:10;5.43;;;4.05;;
18142;SDS011;9197;50.930;3.140;2023-05-20T10:07:47;5.00;;;3.80;;
18142;SDS011;9197;50.930;3.140;2023-05-20T10:10:21;5.03;;;3.72;;
18142;SDS011;9197;50.930;3.140;2023-05-20T10:12:52;4.30;;;3.63;;
18142;SDS011;9197;50.930;3.140;2023-05-20T10:15:23;5.20;;;3.53;;
18142;SDS011;9197;50.930;3.140;2023-05-20T10:17:58;3.83;;;3.42;;
18142;SDS011;9197;50.930;3.140;2023-05-20T10:20:28;14.48;;;3.47;;
18142;SDS011;9197;50.930;3.140;2023-05-20T10:22:57;16.67;;;3.90;;
18142;SDS011;9197;50.930;3.140;2023-05-20T10:25:25;5.75;;;4.10;;
18142;SDS011;9197;50.930;3.140;2023-05-20T10:28:02;5.22;;;3.95;;
18142;SDS011;9197;50.930;3.140;2023-05-20T10:30:32;7.25;;;3.95;;
18142;SDS011;9197;50.930;3.140;2023-05-20T10:33:04;7.38;;;4.55;;
18142;SDS011;9197;50.930;3.140;2023-05-20T10:35:31;7.00;;;4.90;;
18142;SDS011;9197;50.930;3.140;2023-05-20T10:38:06;8.05;;;4.55;;
18142;SDS011;9197;50.930;3.140;2023-05-20T10:40:34;8.38;;;4.20;;
18142;SDS011;9197;50.930;3.140;2023-05-20T10:43:07;5.03;;;4.43;;
18142;SDS011;9197;50.930;3.140;2023-05-20T10:45:35;10.82;;;4.38;;
18142;SDS011;9197;50.930;3.140;2023-05-20T10:48:20;6.65;;;4.70;;
18142;SDS011;9197;50.930;3.140;2023-05-20T10:50:48;5.88;;;4.88;;
18142;SDS011;9197;50.930;3.140;2023-05-20T10:53:16;6.20;;;4.07;;
18142;SDS011;9197;50.930;3.140;2023-05-20T10:55:47;7.15;;;5.38;;
18142;SDS011;9197;50.930;3.140;2023-05-20T10:58:15;12.23;;;5.57;;
18142;SDS011;9197;50.930;3.140;2023-05-20T11:00:43;7.95;;;7.05;;
18142;SDS011;9197;50.930;3.140;2023-05-20T11:03:10;6.88;;;5.20;;
18142;SDS011;9197;50.930;3.140;2023-05-20T11:05:40;8.10;;;6.28;;
18142;SDS011;9197;50.930;3.140;2023-05-20T11:08:10;6.72;;;5.70;;
18142;SDS011;9197;50.930;3.140;2023-05-20T11:10:38;11.82;;;6.35;;
18142;SDS011;9197;50.930;3.140;2023-05-20T11:13:05;11.57;;;6.72;;
18142;SDS011;9197;50.930;3.140;2023-05-20T11:15:33;9.65;;;6.93;;
18142;SDS011;9197;50.930;3.140;2023-05-20T11:18:01;6.80;;;5.85;;
18142;SDS011;9197;50.930;3.140;2023-05-20T11:20:29;10.43;;;6.18;;
18142;SDS011;9197;50.930;3.140;2023-05-20T11:23:01;8.63;;;4.13;;
18142;SDS011;9197;50.930;3.140;2023-05-20T11:25:28;5.07;;;4.57;;
18142;SDS011;9197;50.930;3.140;2023-05-20T11:27:56;5.53;;;5.03;;
18142;SDS011;9197;50.930;3.140;2023-05-20T11:30:25;6.05;;;5.55;;
18142;SDS011;9197;50.930;3.140;2023-05-20T11:32:55;6.00;;;4.75;;
18142;SDS011;9197;50.930;3.140;2023-05-20T11:35:23;6.45;;;3.85;;
18142;SDS011;9197;50.930;3.140;2023-05-20T11:38:01;5.63;;;4.32;;
18142;SDS011;9197;50.930;3.140;2023-05-20T11:40:29;7.03;;;4.78;;
18142;SDS011;9197;50.930;3.140;2023-05-20T11:42:57;6.18;;;4.93;;
18142;SDS011;9197;50.930;3.140;2023-05-20T11:45:25;6.78;;;4.57;;
18142;SDS011;9197;50.930;3.140;2023-05-20T11:47:59;5.93;;;4.32;;
18142;SDS011;9197;50.930;3.140;2023-05-20T11:50:27;6.65;;;4.95;;
18142;SDS011;9197;50.930;3.140;2023-05-20T11:52:56;6.15;;;4.32;;
18142;SDS011;9197;50.930;3.140;2023-05-20T11:55:25;7.38;;;4.07;;
18142;SDS011;9197;50.930;3.140;2023-05-20T11:57:53;7.18;;;4.57;;
18142;SDS011;9197;50.930;3.140;2023-05-20T12:00:22;4.40;;;4.00;;
18142;SDS011;9197;50.930;3.140;2023-05-20T12:02:49;4.70;;;4.20;;
18142;SDS011;9197;50.930;3.140;2023-05-20T12:05:17;7.18;;;4.15;;
18142;SDS011;9197;50.930;3.140;2023-05-20T12:07:44;9.13;;;4.30;;
18142;SDS011;9197;50.930;3.140;2023-05-20T12:10:12;3.67;;;3.38;;
18142;SDS011;9197;50.930;3.140;2023-05-20T12:12:41;5.65;;;4.68;;
18142;SDS011;9197;50.930;3.140;2023-05-20T12:15:09;5.00;;;4.18;;
18142;SDS011;9197;50.930;3.140;2023-05-20T12:17:44;7.88;;;3.63;;
18142;SDS011;9197;50.930;3.140;2023-05-20T12:20:12;5.18;;;3.50;;
18142;SDS011;9197;50.930;3.140;2023-05-20T12:22:41;8.98;;;4.05;;
18142;SDS011;9197;50.930;3.140;2023-05-20T12:25:09;5.22;;;3.88;;
18142;SDS011;9197;50.930;3.140;2023-05-20T12:27:37;6.57;;;3.63;;
18142;SDS011;9197;50.930;3.140;2023-05-20T12:30:07;4.80;;;3.10;;
18142;SDS011;9197;50.930;3.140;2023-05-20T12:32:35;5.35;;;3.67;;
18142;SDS011;9197;50.930;3.140;2023-05-20T12:35:03;7.85;;;4.22;;
18142;SDS011;9197;50.930;3.140;2023-05-20T12:37:30;5.75;;;4.20;;
18142;SDS011;9197;50.930;3.140;2023-05-20T12:39:58;5.90;;;3.55;;
18142;SDS011;9197;50.930;3.140;2023-05-20T12:42:25;4.80;;;3.95;;
18142;SDS011;9197;50.930;3.140;2023-05-20T12:44:53;10.27;;;4.00;;
18142;SDS011;9197;50.930;3.140;2023-05-20T12:47:22;7.30;;;5.35;;
18142;SDS011;9197;50.930;3.140;2023-05-20T12:49:49;5.95;;;3.63;;
18142;SDS011;9197;50.930;3.140;2023-05-20T12:52:16;6.38;;;3.20;;
18142;SDS011;9197;50.930;3.140;2023-05-20T12:54:44;4.97;;;3.25;;
18142;SDS011;9197;50.930;3.140;2023-05-20T12:57:11;5.75;;;3.30;;
18142;SDS011;9197;50.930;3.140;2023-05-20T12:59:39;5.43;;;2.88;;
18142;SDS011;9197;50.930;3.140;2023-05-20T13:02:06;4.32;;;3.22;;
18142;SDS011;9197;50.930;3.140;2023-05-20T13:04:36;5.35;;;2.97;;
18142;SDS011;9197;50.930;3.140;2023-05-20T13:07:03;4.63;;;3.00;;
18142;SDS011;9197;50.930;3.140;2023-05-20T13:09:31;4.45;;;3.08;;
18142;SDS011;9197;50.930;3.140;2023-05-20T13:11:59;2.90;;;2.60;;
18142;SDS011;9197;50.930;3.140;2023-05-20T13:14:26;4.03;;;3.28;;
18142;SDS011;9197;50.930;3.140;2023-05-20T13:16:54;8.75;;;3.50;;
18142;SDS011;9197;50.930;3.140;2023-05-20T13:19:21;3.25;;;2.92;;
18142;SDS011;9197;50.930;3.140;2023-05-20T13:21:50;6.65;;;3.13;;
18142;SDS011;9197;50.930;3.140;2023-05-20T13:24:18;6.90;;;3.03;;
18142;SDS011;9197;50.930;3.140;2023-05-20T13:26:46;7.93;;;2.70;;
18142;SDS011;9197;50.930;3.140;2023-05-20T13:29:14;3.45;;;2.67;;
18142;SDS011;9197;50.930;3.140;2023-05-20T13:31:42;4.05;;;2.55;;
18142;SDS011;9197;50.930;3.140;2023-05-20T13:34:09;4.75;;;2.78;;
18142;SDS011;9197;50.930;3.140;2023-05-20T13:36:38;4.25;;;3.10;;
18142;SDS011;9197;50.930;3.140;2023-05-20T13:39:07;6.80;;;4.97;;
18142;SDS011;9197;50.930;3.140;2023-05-20T13:41:34;8.75;;;4.50;;
18142;SDS011;9197;50.930;3.140;2023-05-20T13:44:02;4.43;;;3.05;;
18142;SDS011;9197;50.930;3.140;2023-05-20T13:46:29;5.25;;;3.13;;
18142;SDS011;9197;50.930;3.140;2023-05-20T13:48:57;5.47;;;3.72;;
18142;SDS011;9197;50.930;3.140;2023-05-20T13:51:24;4.85;;;2.60;;
18142;SDS011;9197;50.930;3.140;2023-05-20T13:53:51;3.80;;;2.50;;
18142;SDS011;9197;50.930;3.140;2023-05-20T13:56:20;5.57;;;2.92;;
18142;SDS011;9197;50.930;3.140;2023-05-20T13:58:48;4.10;;;2.50;;
18142;SDS011;9197;50.930;3.140;2023-05-20T14:01:15;2.65;;;2.45;;
18142;SDS011;9197;50.930;3.140;2023-05-20T14:03:43;4.05;;;2.92;;
18142;SDS011;9197;50.930;3.140;2023-05-20T14:06:10;7.53;;;3.13;;
18142;SDS011;9197;50.930;3.140;2023-05-20T14:08:39;6.30;;;3.42;;
18142;SDS011;9197;50.930;3.140;2023-05-20T14:11:06;5.32;;;2.63;;
18142;SDS011;9197;50.930;3.140;2023-05-20T14:13:35;4.78;;;3.08;;
18142;SDS011;9197;50.930;3.140;2023-05-20T14:16:02;4.95;;;2.40;;
18142;SDS011;9197;50.930;3.140;2023-05-20T14:18:30;4.93;;;2.83;;
18142;SDS011;9197;50.930;3.140;2023-05-20T14:20:57;2.85;;;2.65;;
18142;SDS011;9197;50.930;3.140;2023-05-20T14:23:25;4.03;;;2.95;;
18142;SDS011;9197;50.930;3.140;2023-05-20T14:25:52;6.25;;;3.20;;
18142;SDS011;9197;50.930;3.140;2023-05-20T14:28:20;3.58;;;3.20;;
18142;SDS011;9197;50.930;3.140;2023-05-20T14:30:48;5.60;;;3.60;;
18142;SDS011;9197;50.930;3.140;2023-05-20T14:33:17;6.93;;;3.50;;
18142;SDS011;9197;50.930;3.140;2023-05-20T14:35:45;4.88;;;3.75;;
18142;SDS011;9197;50.930;3.140;2023-05-20T14:38:12;7.38;;;4.13;;
18142;SDS011;9197;50.930;3.140;2023-05-20T14:40:40;6.15;;;3.63;;
18142;SDS011;9197;50.930;3.140;2023-05-20T14:43:08;6.80;;;3.88;;
18142;SDS011;9197;50.930;3.140;2023-05-20T14:45:35;6.45;;;3.42;;
18142;SDS011;9197;50.930;3.140;2023-05-20T14:48:04;6.65;;;3.90;;
18142;SDS011;9197;50.930;3.140;2023-05-20T14:50:32;6.60;;;3.65;;
18142;SDS011;9197;50.930;3.140;2023-05-20T14:52:59;6.75;;;3.90;;
18142;SDS011;9197;50.930;3.140;2023-05-20T14:55:27;6.63;;;3.47;;
18142;SDS011;9197;50.930;3.140;2023-05-20T14:57:54;4.45;;;3.35;;